sensor_id;sensor_type;location;lat;lon;timestamp;temperature;humidity
79187;SHT31;68762;51.980;5.646;2023-04-25T00:01:28;9.8;63.4
79187;SHT31;68762;51.980;5.646;2023-04-25T00:03:58;9.7;63.6
79187;SHT31;68762;51.980;5.646;2023-04-25T00:06:27;9.7;64.2
79187;SHT31;68762;51.980;5.646;2023-04-25T00:08:56;9.7;64.0
79187;SHT31;68762;51.980;5.646;2023-04-25T00:11:25;9.6;64.2
79187;SHT31;68762;51.980;5.646;2023-04-25T00:13:53;9.6;64.0
79187;SHT31;68762;51.980;5.646;2023-04-25T00:16:22;9.6;63.8
79187;SHT31;68762;51.980;5.646;2023-04-25T00:18:53;9.6;64.0
79187;SHT31;68762;51.980;5.646;2023-04-25T00:21:21;9.5;63.9
79187;SHT31;68762;51.980;5.646;2023-04-25T00:23:52;9.5;63.9
79187;SHT31;68762;51.980;5.646;2023-04-25T00:26:21;9.5;64.3
79187;SHT31;68762;51.980;5.646;2023-04-25T00:28:51;9.5;63.9
79187;SHT31;68762;51.980;5.646;2023-04-25T00:31:22;9.5;63.8
79187;SHT31;68762;51.980;5.646;2023-04-25T00:33:50;9.4;63.5
79187;SHT31;68762;51.980;5.646;2023-04-25T00:36:19;9.4;63.8
79187;SHT31;68762;51.980;5.646;2023-04-25T00:38:48;9.4;63.6
79187;SHT31;68762;51.980;5.646;2023-04-25T00:41:17;9.4;63.8
79187;SHT31;68762;51.980;5.646;2023-04-25T00:43:48;9.4;64.1
79187;SHT31;68762;51.980;5.646;2023-04-25T00:46:17;9.3;64.1
79187;SHT31;68762;51.980;5.646;2023-04-25T00:48:46;9.3;63.7
79187;SHT31;68762;51.980;5.646;2023-04-25T00:51:19;9.3;63.7
79187;SHT31;68762;51.980;5.646;2023-04-25T00:53:49;9.3;63.8
79187;SHT31;68762;51.980;5.646;2023-04-25T00:56:18;9.2;63.7
79187;SHT31;68762;51.980;5.646;2023-04-25T00:58:48;9.2;63.3
79187;SHT31;68762;51.980;5.646;2023-04-25T01:01:19;9.2;63.5
79187;SHT31;68762;51.980;5.646;2023-04-25T01:03:49;9.2;63.3
79187;SHT31;68762;51.980;5.646;2023-04-25T01:06:19;9.1;63.6
79187;SHT31;68762;51.980;5.646;2023-04-25T01:08:48;9.1;64.0
79187;SHT31;68762;51.980;5.646;2023-04-25T01:11:17;9.1;64.4
79187;SHT31;68762;51.980;5.646;2023-04-25T01:13:48;9.1;64.9
79187;SHT31;68762;51.980;5.646;2023-04-25T01:16:17;9.1;65.1
79187;SHT31;68762;51.980;5.646;2023-04-25T01:18:47;9.1;65.5
79187;SHT31;68762;51.980;5.646;2023-04-25T01:21:17;9.1;65.4
79187;SHT31;68762;51.980;5.646;2023-04-25T01:23:46;9.1;65.4
79187;SHT31;68762;51.980;5.646;2023-04-25T01:26:15;9.2;65.3
79187;SHT31;68762;51.980;5.646;2023-04-25T01:28:44;9.2;65.2
79187;SHT31;68762;51.980;5.646;2023-04-25T01:31:16;9.2;65.0
79187;SHT31;68762;51.980;5.646;2023-04-25T01:33:45;9.3;64.7
79187;SHT31;68762;51.980;5.646;2023-04-25T01:36:14;9.3;65.3
79187;SHT31;68762;51.980;5.646;2023-04-25T01:38:43;9.3;64.9
79187;SHT31;68762;51.980;5.646;2023-04-25T01:41:14;9.3;64.7
79187;SHT31;68762;51.980;5.646;2023-04-25T01:43:45;9.3;64.5
79187;SHT31;68762;51.980;5.646;2023-04-25T01:46:16;9.4;64.1
79187;SHT31;68762;51.980;5.646;2023-04-25T01:48:45;9.4;64.4
79187;SHT31;68762;51.980;5.646;2023-04-25T01:51:15;9.4;64.0
79187;SHT31;68762;51.980;5.646;2023-04-25T01:53:45;9.4;63.8
79187;SHT31;68762;51.980;5.646;2023-04-25T01:56:14;9.4;63.9
79187;SHT31;68762;51.980;5.646;2023-04-25T01:58:42;9.4;63.5
79187;SHT31;68762;51.980;5.646;2023-04-25T02:01:11;9.5;63.4
79187;SHT31;68762;51.980;5.646;2023-04-25T02:03:40;9.5;62.7
79187;SHT31;68762;51.980;5.646;2023-04-25T02:06:08;9.5;62.4
79187;SHT31;68762;51.980;5.646;2023-04-25T02:08:37;9.4;62.3
79187;SHT31;68762;51.980;5.646;2023-04-25T02:11:06;9.4;62.0
79187;SHT31;68762;51.980;5.646;2023-04-25T02:13:34;9.4;61.4
79187;SHT31;68762;51.980;5.646;2023-04-25T02:16:03;9.4;61.1
79187;SHT31;68762;51.980;5.646;2023-04-25T02:18:32;9.4;61.4
79187;SHT31;68762;51.980;5.646;2023-04-25T02:21:03;9.3;61.4
79187;SHT31;68762;51.980;5.646;2023-04-25T02:23:32;9.3;61.1
79187;SHT31;68762;51.980;5.646;2023-04-25T02:26:01;9.3;61.3
79187;SHT31;68762;51.980;5.646;2023-04-25T02:28:29;9.2;61.3
79187;SHT31;68762;51.980;5.646;2023-04-25T02:30:58;9.2;62.0
79187;SHT31;68762;51.980;5.646;2023-04-25T02:33:27;9.1;60.9
79187;SHT31;68762;51.980;5.646;2023-04-25T02:35:56;9.1;61.2
79187;SHT31;68762;51.980;5.646;2023-04-25T02:38:24;9.1;60.7
79187;SHT31;68762;51.980;5.646;2023-04-25T02:40:53;9.0;60.9
79187;SHT31;68762;51.980;5.646;2023-04-25T02:43:21;9.0;61.0
79187;SHT31;68762;51.980;5.646;2023-04-25T02:45:50;8.9;61.4
79187;SHT31;68762;51.980;5.646;2023-04-25T02:48:19;8.9;61.7
79187;SHT31;68762;51.980;5.646;2023-04-25T02:50:47;8.9;61.3
79187;SHT31;68762;51.980;5.646;2023-04-25T02:53:16;8.8;61.0
79187;SHT31;68762;51.980;5.646;2023-04-25T02:55:44;8.8;61.7
79187;SHT31;68762;51.980;5.646;2023-04-25T02:58:13;8.7;61.6
79187;SHT31;68762;51.980;5.646;2023-04-25T03:00:42;8.7;61.7
79187;SHT31;68762;51.980;5.646;2023-04-25T03:03:11;8.7;62.6
79187;SHT31;68762;51.980;5.646;2023-04-25T03:05:40;8.6;62.1
79187;SHT31;68762;51.980;5.646;2023-04-25T03:08:08;8.6;62.2
79187;SHT31;68762;51.980;5.646;2023-04-25T03:10:38;8.6;62.2
79187;SHT31;68762;51.980;5.646;2023-04-25T03:13:07;8.5;62.3
79187;SHT31;68762;51.980;5.646;2023-04-25T03:15:37;8.5;62.6
79187;SHT31;68762;51.980;5.646;2023-04-25T03:18:06;8.4;62.4
79187;SHT31;68762;51.980;5.646;2023-04-25T03:20:35;8.4;62.7
79187;SHT31;68762;51.980;5.646;2023-04-25T03:23:05;8.4;63.4
79187;SHT31;68762;51.980;5.646;2023-04-25T03:25:34;8.4;63.3
79187;SHT31;68762;51.980;5.646;2023-04-25T03:28:03;8.3;64.0
79187;SHT31;68762;51.980;5.646;2023-04-25T03:30:31;8.3;64.4
79187;SHT31;68762;51.980;5.646;2023-04-25T03:33:02;8.3;64.6
79187;SHT31;68762;51.980;5.646;2023-04-25T03:35:31;8.3;64.3
79187;SHT31;68762;51.980;5.646;2023-04-25T03:37:59;8.3;64.7
79187;SHT31;68762;51.980;5.646;2023-04-25T03:40:28;8.3;65.2
79187;SHT31;68762;51.980;5.646;2023-04-25T03:43:03;8.3;65.1
79187;SHT31;68762;51.980;5.646;2023-04-25T03:45:32;8.4;64.9
79187;SHT31;68762;51.980;5.646;2023-04-25T03:48:01;8.4;65.1
79187;SHT31;68762;51.980;5.646;2023-04-25T03:50:29;8.4;64.8
79187;SHT31;68762;51.980;5.646;2023-04-25T03:52:58;8.4;64.5
79187;SHT31;68762;51.980;5.646;2023-04-25T03:55:26;8.4;64.2
79187;SHT31;68762;51.980;5.646;2023-04-25T03:57:55;8.4;64.2
79187;SHT31;68762;51.980;5.646;2023-04-25T04:00:24;8.4;64.1
79187;SHT31;68762;51.980;5.646;2023-04-25T04:02:53;8.4;64.2
79187;SHT31;68762;51.980;5.646;2023-04-25T04:05:22;8.3;64.1
79187;SHT31;68762;51.980;5.646;2023-04-25T04:07:50;8.3;63.8
79187;SHT31;68762;51.980;5.646;2023-04-25T04:10:19;8.3;64.2
79187;SHT31;68762;51.980;5.646;2023-04-25T04:12:48;8.3;64.5
79187;SHT31;68762;51.980;5.646;2023-04-25T04:15:16;8.3;64.7
79187;SHT31;68762;51.980;5.646;2023-04-25T04:17:45;8.3;64.4
79187;SHT31;68762;51.980;5.646;2023-04-25T04:20:13;8.3;64.7
79187;SHT31;68762;51.980;5.646;2023-04-25T04:22:42;8.3;64.7
79187;SHT31;68762;51.980;5.646;2023-04-25T04:25:11;8.3;65.1
79187;SHT31;68762;51.980;5.646;2023-04-25T04:27:40;8.3;65.0
79187;SHT31;68762;51.980;5.646;2023-04-25T04:30:11;8.3;64.8
79187;SHT31;68762;51.980;5.646;2023-04-25T04:32:40;8.4;65.0
79187;SHT31;68762;51.980;5.646;2023-04-25T04:35:11;8.4;64.6
79187;SHT31;68762;51.980;5.646;2023-04-25T04:37:40;8.4;64.7
79187;SHT31;68762;51.980;5.646;2023-04-25T04:40:13;8.4;64.9
79187;SHT31;68762;51.980;5.646;2023-04-25T04:42:42;8.5;65.2
79187;SHT31;68762;51.980;5.646;2023-04-25T04:45:12;8.5;65.0
79187;SHT31;68762;51.980;5.646;2023-04-25T04:47:40;8.5;64.4
79187;SHT31;68762;51.980;5.646;2023-04-25T04:50:10;8.6;65.2
79187;SHT31;68762;51.980;5.646;2023-04-25T04:52:39;8.6;65.3
79187;SHT31;68762;51.980;5.646;2023-04-25T04:55:08;8.6;64.8
79187;SHT31;68762;51.980;5.646;2023-04-25T04:57:37;8.7;64.6
79187;SHT31;68762;51.980;5.646;2023-04-25T05:00:06;8.7;64.9
79187;SHT31;68762;51.980;5.646;2023-04-25T05:02:37;8.7;65.0
79187;SHT31;68762;51.980;5.646;2023-04-25T05:05:07;8.8;64.6
79187;SHT31;68762;51.980;5.646;2023-04-25T05:07:36;8.8;64.7
79187;SHT31;68762;51.980;5.646;2023-04-25T05:10:06;8.8;64.7
79187;SHT31;68762;51.980;5.646;2023-04-25T05:12:34;8.9;64.6
79187;SHT31;68762;51.980;5.646;2023-04-25T05:15:03;8.9;64.6
79187;SHT31;68762;51.980;5.646;2023-04-25T05:17:32;8.9;65.1
79187;SHT31;68762;51.980;5.646;2023-04-25T05:20:01;9.0;64.5
79187;SHT31;68762;51.980;5.646;2023-04-25T05:22:32;9.0;64.3
79187;SHT31;68762;51.980;5.646;2023-04-25T05:25:01;9.1;63.9
79187;SHT31;68762;51.980;5.646;2023-04-25T05:27:30;9.1;64.5
79187;SHT31;68762;51.980;5.646;2023-04-25T05:29:58;9.1;64.2
79187;SHT31;68762;51.980;5.646;2023-04-25T05:32:27;9.2;63.3
79187;SHT31;68762;51.980;5.646;2023-04-25T05:34:56;9.2;63.6
79187;SHT31;68762;51.980;5.646;2023-04-25T05:37:24;9.3;63.3
79187;SHT31;68762;51.980;5.646;2023-04-25T05:39:53;9.3;63.4
79187;SHT31;68762;51.980;5.646;2023-04-25T05:42:22;9.3;63.6
79187;SHT31;68762;51.980;5.646;2023-04-25T05:44:50;9.4;63.1
79187;SHT31;68762;51.980;5.646;2023-04-25T05:47:19;9.4;63.0
79187;SHT31;68762;51.980;5.646;2023-04-25T05:49:47;9.5;61.8
79187;SHT31;68762;51.980;5.646;2023-04-25T05:52:16;9.5;62.0
79187;SHT31;68762;51.980;5.646;2023-04-25T05:54:45;9.5;61.4
79187;SHT31;68762;51.980;5.646;2023-04-25T05:57:20;9.6;61.7
79187;SHT31;68762;51.980;5.646;2023-04-25T05:59:49;9.6;62.1
79187;SHT31;68762;51.980;5.646;2023-04-25T06:02:18;9.6;62.5
79187;SHT31;68762;51.980;5.646;2023-04-25T06:04:47;9.6;61.7
79187;SHT31;68762;51.980;5.646;2023-04-25T06:07:16;9.7;60.8
79187;SHT31;68762;51.980;5.646;2023-04-25T06:09:45;9.7;61.7
79187;SHT31;68762;51.980;5.646;2023-04-25T06:12:13;9.8;61.7
79187;SHT31;68762;51.980;5.646;2023-04-25T06:14:44;9.8;61.3
79187;SHT31;68762;51.980;5.646;2023-04-25T06:17:12;9.9;61.9
79187;SHT31;68762;51.980;5.646;2023-04-25T06:19:41;9.9;62.4
79187;SHT31;68762;51.980;5.646;2023-04-25T06:22:10;10.0;60.9
79187;SHT31;68762;51.980;5.646;2023-04-25T06:24:38;10.0;61.4
79187;SHT31;68762;51.980;5.646;2023-04-25T06:27:07;10.1;60.9
79187;SHT31;68762;51.980;5.646;2023-04-25T06:29:36;10.2;60.0
79187;SHT31;68762;51.980;5.646;2023-04-25T06:32:04;10.3;60.7
79187;SHT31;68762;51.980;5.646;2023-04-25T06:34:33;10.3;60.3
79187;SHT31;68762;51.980;5.646;2023-04-25T06:37:02;10.4;60.8
79187;SHT31;68762;51.980;5.646;2023-04-25T06:39:31;10.5;58.9
79187;SHT31;68762;51.980;5.646;2023-04-25T06:41:59;10.5;59.1
79187;SHT31;68762;51.980;5.646;2023-04-25T06:44:28;10.6;58.8
79187;SHT31;68762;51.980;5.646;2023-04-25T06:46:57;10.7;58.3
79187;SHT31;68762;51.980;5.646;2023-04-25T06:49:26;10.8;58.2
79187;SHT31;68762;51.980;5.646;2023-04-25T06:51:54;10.9;58.5
79187;SHT31;68762;51.980;5.646;2023-04-25T06:54:23;10.9;58.0
79187;SHT31;68762;51.980;5.646;2023-04-25T06:56:53;11.0;57.6
79187;SHT31;68762;51.980;5.646;2023-04-25T06:59:22;11.1;57.3
79187;SHT31;68762;51.980;5.646;2023-04-25T07:01:51;11.2;56.1
79187;SHT31;68762;51.980;5.646;2023-04-25T07:04:20;11.2;55.8
79187;SHT31;68762;51.980;5.646;2023-04-25T07:06:48;11.3;56.8
79187;SHT31;68762;51.980;5.646;2023-04-25T07:09:17;11.4;55.4
79187;SHT31;68762;51.980;5.646;2023-04-25T07:11:46;11.5;55.7
79187;SHT31;68762;51.980;5.646;2023-04-25T07:14:14;11.5;55.0
79187;SHT31;68762;51.980;5.646;2023-04-25T07:16:43;11.6;54.6
79187;SHT31;68762;51.980;5.646;2023-04-25T07:19:12;11.7;54.8
79187;SHT31;68762;51.980;5.646;2023-04-25T07:21:41;11.8;54.5
79187;SHT31;68762;51.980;5.646;2023-04-25T07:24:09;12.0;54.9
79187;SHT31;68762;51.980;5.646;2023-04-25T07:26:38;12.4;56.0
79187;SHT31;68762;51.980;5.646;2023-04-25T07:29:08;12.9;53.4
79187;SHT31;68762;51.980;5.646;2023-04-25T07:31:37;13.4;51.5
79187;SHT31;68762;51.980;5.646;2023-04-25T07:34:06;13.8;50.2
79187;SHT31;68762;51.980;5.646;2023-04-25T07:36:34;13.9;49.5
79187;SHT31;68762;51.980;5.646;2023-04-25T07:39:05;14.0;47.7
79187;SHT31;68762;51.980;5.646;2023-04-25T07:41:35;14.1;48.6
79187;SHT31;68762;51.980;5.646;2023-04-25T07:44:04;14.2;48.0
79187;SHT31;68762;51.980;5.646;2023-04-25T07:46:33;14.2;48.0
79187;SHT31;68762;51.980;5.646;2023-04-25T07:49:01;14.3;49.4
79187;SHT31;68762;51.980;5.646;2023-04-25T07:51:30;14.5;46.9
79187;SHT31;68762;51.980;5.646;2023-04-25T07:53:59;14.6;46.2
79187;SHT31;68762;51.980;5.646;2023-04-25T07:56:28;14.7;46.4
79187;SHT31;68762;51.980;5.646;2023-04-25T07:58:56;14.8;47.8
79187;SHT31;68762;51.980;5.646;2023-04-25T08:01:25;15.0;46.8
79187;SHT31;68762;51.980;5.646;2023-04-25T08:03:54;15.3;46.4
79187;SHT31;68762;51.980;5.646;2023-04-25T08:06:23;16.0;43.9
79187;SHT31;68762;51.980;5.646;2023-04-25T08:08:51;16.7;40.8
79187;SHT31;68762;51.980;5.646;2023-04-25T08:11:20;17.4;42.0
79187;SHT31;68762;51.980;5.646;2023-04-25T08:13:49;18.0;37.7
79187;SHT31;68762;51.980;5.646;2023-04-25T08:16:17;18.3;38.5
79187;SHT31;68762;51.980;5.646;2023-04-25T08:18:46;18.5;35.6
79187;SHT31;68762;51.980;5.646;2023-04-25T08:21:16;18.5;34.7
79187;SHT31;68762;51.980;5.646;2023-04-25T08:23:45;18.5;34.5
79187;SHT31;68762;51.980;5.646;2023-04-25T08:26:16;18.4;35.0
79187;SHT31;68762;51.980;5.646;2023-04-25T08:28:44;18.3;36.5
79187;SHT31;68762;51.980;5.646;2023-04-25T08:31:14;18.2;36.0
79187;SHT31;68762;51.980;5.646;2023-04-25T08:33:43;18.1;35.9
79187;SHT31;68762;51.980;5.646;2023-04-25T08:36:14;18.1;34.9
79187;SHT31;68762;51.980;5.646;2023-04-25T08:38:44;18.0;36.8
79187;SHT31;68762;51.980;5.646;2023-04-25T08:41:15;17.9;35.2
79187;SHT31;68762;51.980;5.646;2023-04-25T08:43:44;17.9;35.1
79187;SHT31;68762;51.980;5.646;2023-04-25T08:46:18;17.8;35.9
79187;SHT31;68762;51.980;5.646;2023-04-25T08:48:47;17.7;35.8
79187;SHT31;68762;51.980;5.646;2023-04-25T08:51:22;17.7;35.3
79187;SHT31;68762;51.980;5.646;2023-04-25T08:53:53;17.6;35.6
79187;SHT31;68762;51.980;5.646;2023-04-25T08:56:22;17.7;37.3
79187;SHT31;68762;51.980;5.646;2023-04-25T08:58:51;17.8;35.8
79187;SHT31;68762;51.980;5.646;2023-04-25T09:01:20;18.0;35.2
79187;SHT31;68762;51.980;5.646;2023-04-25T09:03:49;18.1;34.6
79187;SHT31;68762;51.980;5.646;2023-04-25T09:06:18;18.0;34.8
79187;SHT31;68762;51.980;5.646;2023-04-25T09:08:50;17.9;36.4
79187;SHT31;68762;51.980;5.646;2023-04-25T09:11:19;17.7;35.7
79187;SHT31;68762;51.980;5.646;2023-04-25T09:13:49;17.4;36.0
79187;SHT31;68762;51.980;5.646;2023-04-25T09:16:23;17.1;34.3
79187;SHT31;68762;51.980;5.646;2023-04-25T09:18:51;16.8;35.2
79187;SHT31;68762;51.980;5.646;2023-04-25T09:21:22;16.6;36.8
79187;SHT31;68762;51.980;5.646;2023-04-25T09:23:51;16.4;36.9
79187;SHT31;68762;51.980;5.646;2023-04-25T09:26:20;16.3;37.5
79187;SHT31;68762;51.980;5.646;2023-04-25T09:29:04;16.2;39.3
79187;SHT31;68762;51.980;5.646;2023-04-25T09:31:33;16.2;38.1
79187;SHT31;68762;51.980;5.646;2023-04-25T09:34:03;16.2;36.3
79187;SHT31;68762;51.980;5.646;2023-04-25T09:36:36;16.3;38.2
79187;SHT31;68762;51.980;5.646;2023-04-25T09:39:13;16.4;38.0
79187;SHT31;68762;51.980;5.646;2023-04-25T09:41:47;16.5;35.5
79187;SHT31;68762;51.980;5.646;2023-04-25T09:44:24;16.7;35.8
79187;SHT31;68762;51.980;5.646;2023-04-25T09:46:53;17.0;36.9
79187;SHT31;68762;51.980;5.646;2023-04-25T09:49:22;17.5;35.8
79187;SHT31;68762;51.980;5.646;2023-04-25T09:51:57;18.3;35.4
79187;SHT31;68762;51.980;5.646;2023-04-25T09:54:27;19.2;33.2
79187;SHT31;68762;51.980;5.646;2023-04-25T09:56:55;19.8;33.8
79187;SHT31;68762;51.980;5.646;2023-04-25T09:59:26;20.3;31.5
79187;SHT31;68762;51.980;5.646;2023-04-25T10:01:56;20.5;29.6
79187;SHT31;68762;51.980;5.646;2023-04-25T10:04:28;20.5;28.3
79187;SHT31;68762;51.980;5.646;2023-04-25T10:06:59;20.5;29.1
79187;SHT31;68762;51.980;5.646;2023-04-25T10:09:29;20.3;29.3
79187;SHT31;68762;51.980;5.646;2023-04-25T10:12:00;20.0;28.8
79187;SHT31;68762;51.980;5.646;2023-04-25T10:14:30;19.5;29.0
79187;SHT31;68762;51.980;5.646;2023-04-25T10:17:00;19.1;30.3
79187;SHT31;68762;51.980;5.646;2023-04-25T10:19:29;18.8;31.0
79187;SHT31;68762;51.980;5.646;2023-04-25T10:22:04;18.5;30.4
79187;SHT31;68762;51.980;5.646;2023-04-25T10:24:35;18.2;32.7
79187;SHT31;68762;51.980;5.646;2023-04-25T10:27:04;17.9;34.2
79187;SHT31;68762;51.980;5.646;2023-04-25T10:29:35;17.7;34.2
79187;SHT31;68762;51.980;5.646;2023-04-25T10:32:04;17.5;34.6
79187;SHT31;68762;51.980;5.646;2023-04-25T10:34:43;17.4;34.2
79187;SHT31;68762;51.980;5.646;2023-04-25T10:37:15;17.2;34.0
79187;SHT31;68762;51.980;5.646;2023-04-25T10:39:44;17.1;35.1
79187;SHT31;68762;51.980;5.646;2023-04-25T10:42:13;17.1;34.0
79187;SHT31;68762;51.980;5.646;2023-04-25T10:45:02;17.0;34.2
79187;SHT31;68762;51.980;5.646;2023-04-25T10:47:45;16.9;37.0
79187;SHT31;68762;51.980;5.646;2023-04-25T10:50:15;16.9;36.9
79187;SHT31;68762;51.980;5.646;2023-04-25T10:52:44;16.9;34.7
79187;SHT31;68762;51.980;5.646;2023-04-25T10:55:13;17.0;34.7
79187;SHT31;68762;51.980;5.646;2023-04-25T10:57:43;17.0;33.9
79187;SHT31;68762;51.980;5.646;2023-04-25T11:00:15;17.0;33.2
79187;SHT31;68762;51.980;5.646;2023-04-25T11:02:47;17.0;32.8
79187;SHT31;68762;51.980;5.646;2023-04-25T11:05:31;17.0;32.6
79187;SHT31;68762;51.980;5.646;2023-04-25T11:08:01;17.0;34.0
79187;SHT31;68762;51.980;5.646;2023-04-25T11:10:32;17.0;33.5
79187;SHT31;68762;51.980;5.646;2023-04-25T11:13:01;17.0;32.5
79187;SHT31;68762;51.980;5.646;2023-04-25T11:15:30;17.0;32.7
79187;SHT31;68762;51.980;5.646;2023-04-25T11:17:58;17.0;32.5
79187;SHT31;68762;51.980;5.646;2023-04-25T11:20:27;17.0;32.9
79187;SHT31;68762;51.980;5.646;2023-04-25T11:22:58;17.0;34.4
79187;SHT31;68762;51.980;5.646;2023-04-25T11:25:29;17.1;34.1
79187;SHT31;68762;51.980;5.646;2023-04-25T11:27:59;17.1;34.7
79187;SHT31;68762;51.980;5.646;2023-04-25T11:30:29;17.3;33.6
79187;SHT31;68762;51.980;5.646;2023-04-25T11:32:58;17.4;33.1
79187;SHT31;68762;51.980;5.646;2023-04-25T11:35:29;17.6;32.9
79187;SHT31;68762;51.980;5.646;2023-04-25T11:37:58;17.7;33.0
79187;SHT31;68762;51.980;5.646;2023-04-25T11:40:27;17.7;32.4
79187;SHT31;68762;51.980;5.646;2023-04-25T11:42:56;17.8;33.9
79187;SHT31;68762;51.980;5.646;2023-04-25T11:45:24;17.8;32.9
79187;SHT31;68762;51.980;5.646;2023-04-25T11:47:53;18.0;33.3
79187;SHT31;68762;51.980;5.646;2023-04-25T11:50:22;18.3;33.4
79187;SHT31;68762;51.980;5.646;2023-04-25T11:52:58;18.4;33.4
79187;SHT31;68762;51.980;5.646;2023-04-25T11:55:30;18.4;33.8
79187;SHT31;68762;51.980;5.646;2023-04-25T11:58:00;18.3;33.3
79187;SHT31;68762;51.980;5.646;2023-04-25T12:00:30;18.1;33.5
79187;SHT31;68762;51.980;5.646;2023-04-25T12:02:59;17.8;34.4
79187;SHT31;68762;51.980;5.646;2023-04-25T12:05:30;17.5;35.0
79187;SHT31;68762;51.980;5.646;2023-04-25T12:08:13;17.3;36.2
79187;SHT31;68762;51.980;5.646;2023-04-25T12:10:44;17.1;36.7
79187;SHT31;68762;51.980;5.646;2023-04-25T12:13:20;16.9;37.7
79187;SHT31;68762;51.980;5.646;2023-04-25T12:15:50;16.9;36.7
79187;SHT31;68762;51.980;5.646;2023-04-25T12:18:23;16.8;36.3
79187;SHT31;68762;51.980;5.646;2023-04-25T12:20:54;16.8;35.8
79187;SHT31;68762;51.980;5.646;2023-04-25T12:23:27;16.7;36.0
79187;SHT31;68762;51.980;5.646;2023-04-25T12:25:57;16.7;34.6
79187;SHT31;68762;51.980;5.646;2023-04-25T12:28:32;16.6;35.4
79187;SHT31;68762;51.980;5.646;2023-04-25T12:31:02;16.6;36.0
79187;SHT31;68762;51.980;5.646;2023-04-25T12:33:33;16.6;37.4
79187;SHT31;68762;51.980;5.646;2023-04-25T12:36:04;16.6;36.8
79187;SHT31;68762;51.980;5.646;2023-04-25T12:38:39;16.6;36.1
79187;SHT31;68762;51.980;5.646;2023-04-25T12:41:08;16.7;34.5
79187;SHT31;68762;51.980;5.646;2023-04-25T12:43:37;16.7;35.1
79187;SHT31;68762;51.980;5.646;2023-04-25T12:46:06;16.8;34.3
79187;SHT31;68762;51.980;5.646;2023-04-25T12:48:35;16.8;37.0
79187;SHT31;68762;51.980;5.646;2023-04-25T12:51:04;16.9;37.2
79187;SHT31;68762;51.980;5.646;2023-04-25T12:53:33;17.0;36.6
79187;SHT31;68762;51.980;5.646;2023-04-25T12:56:04;17.1;34.7
79187;SHT31;68762;51.980;5.646;2023-04-25T12:58:33;17.1;35.4
79187;SHT31;68762;51.980;5.646;2023-04-25T13:01:02;17.1;36.5
79187;SHT31;68762;51.980;5.646;2023-04-25T13:03:31;17.1;37.3
79187;SHT31;68762;51.980;5.646;2023-04-25T13:06:00;17.0;36.5
79187;SHT31;68762;51.980;5.646;2023-04-25T13:08:29;16.9;35.8
79187;SHT31;68762;51.980;5.646;2023-04-25T13:10:58;16.9;35.9
79187;SHT31;68762;51.980;5.646;2023-04-25T13:13:27;16.9;36.0
79187;SHT31;68762;51.980;5.646;2023-04-25T13:15:56;16.9;35.5
79187;SHT31;68762;51.980;5.646;2023-04-25T13:18:24;17.0;36.7
79187;SHT31;68762;51.980;5.646;2023-04-25T13:20:53;17.1;35.9
79187;SHT31;68762;51.980;5.646;2023-04-25T13:23:22;17.3;35.2
79187;SHT31;68762;51.980;5.646;2023-04-25T13:25:53;17.4;35.5
79187;SHT31;68762;51.980;5.646;2023-04-25T13:28:24;17.6;33.7
79187;SHT31;68762;51.980;5.646;2023-04-25T13:30:53;17.7;33.9
79187;SHT31;68762;51.980;5.646;2023-04-25T13:33:22;18.0;34.2
79187;SHT31;68762;51.980;5.646;2023-04-25T13:35:51;18.3;33.6
79187;SHT31;68762;51.980;5.646;2023-04-25T13:38:24;18.6;31.0
79187;SHT31;68762;51.980;5.646;2023-04-25T13:40:53;18.7;31.8
79187;SHT31;68762;51.980;5.646;2023-04-25T13:43:22;18.7;31.2
79187;SHT31;68762;51.980;5.646;2023-04-25T13:45:51;18.7;30.5
79187;SHT31;68762;51.980;5.646;2023-04-25T13:48:19;18.8;32.3
79187;SHT31;68762;51.980;5.646;2023-04-25T13:50:49;18.8;32.0
79187;SHT31;68762;51.980;5.646;2023-04-25T13:53:18;18.8;31.7
79187;SHT31;68762;51.980;5.646;2023-04-25T13:55:47;18.9;31.8
79187;SHT31;68762;51.980;5.646;2023-04-25T13:58:16;18.9;29.7
79187;SHT31;68762;51.980;5.646;2023-04-25T14:00:46;18.9;31.3
79187;SHT31;68762;51.980;5.646;2023-04-25T14:03:15;18.8;31.3
79187;SHT31;68762;51.980;5.646;2023-04-25T14:05:43;18.6;31.4
79187;SHT31;68762;51.980;5.646;2023-04-25T14:08:12;18.3;32.2
79187;SHT31;68762;51.980;5.646;2023-04-25T14:10:41;18.1;32.3
79187;SHT31;68762;51.980;5.646;2023-04-25T14:13:09;17.8;32.7
79187;SHT31;68762;51.980;5.646;2023-04-25T14:15:38;17.6;33.1
79187;SHT31;68762;51.980;5.646;2023-04-25T14:18:06;17.5;34.8
79187;SHT31;68762;51.980;5.646;2023-04-25T14:20:37;17.5;35.9
79187;SHT31;68762;51.980;5.646;2023-04-25T14:23:05;17.5;35.6
79187;SHT31;68762;51.980;5.646;2023-04-25T14:25:35;17.7;34.2
79187;SHT31;68762;51.980;5.646;2023-04-25T14:28:04;17.7;32.8
79187;SHT31;68762;51.980;5.646;2023-04-25T14:30:33;17.7;32.5
79187;SHT31;68762;51.980;5.646;2023-04-25T14:33:02;17.6;32.9
79187;SHT31;68762;51.980;5.646;2023-04-25T14:35:31;17.5;32.7
79187;SHT31;68762;51.980;5.646;2023-04-25T14:37:59;17.3;32.5
79187;SHT31;68762;51.980;5.646;2023-04-25T14:40:28;17.1;34.7
79187;SHT31;68762;51.980;5.646;2023-04-25T14:42:57;16.9;33.4
79187;SHT31;68762;51.980;5.646;2023-04-25T14:45:26;16.8;34.2
79187;SHT31;68762;51.980;5.646;2023-04-25T14:47:55;16.7;34.6
79187;SHT31;68762;51.980;5.646;2023-04-25T14:50:24;16.6;35.1
79187;SHT31;68762;51.980;5.646;2023-04-25T14:52:52;16.5;34.1
79187;SHT31;68762;51.980;5.646;2023-04-25T14:55:25;16.5;34.0
79187;SHT31;68762;51.980;5.646;2023-04-25T14:57:54;16.5;34.9
79187;SHT31;68762;51.980;5.646;2023-04-25T15:00:25;16.4;33.5
79187;SHT31;68762;51.980;5.646;2023-04-25T15:02:53;16.3;32.4
79187;SHT31;68762;51.980;5.646;2023-04-25T15:05:24;16.2;33.8
79187;SHT31;68762;51.980;5.646;2023-04-25T15:07:53;16.1;33.4
79187;SHT31;68762;51.980;5.646;2023-04-25T15:10:22;16.0;34.5
79187;SHT31;68762;51.980;5.646;2023-04-25T15:12:51;16.0;34.8
79187;SHT31;68762;51.980;5.646;2023-04-25T15:15:20;15.9;36.3
79187;SHT31;68762;51.980;5.646;2023-04-25T15:17:50;15.9;35.0
79187;SHT31;68762;51.980;5.646;2023-04-25T15:20:18;15.8;35.1
79187;SHT31;68762;51.980;5.646;2023-04-25T15:22:48;15.7;36.5
79187;SHT31;68762;51.980;5.646;2023-04-25T15:25:16;15.7;37.6
79187;SHT31;68762;51.980;5.646;2023-04-25T15:27:46;15.7;37.9
79187;SHT31;68762;51.980;5.646;2023-04-25T15:30:16;15.7;37.4
79187;SHT31;68762;51.980;5.646;2023-04-25T15:32:46;15.7;37.3
79187;SHT31;68762;51.980;5.646;2023-04-25T15:35:15;15.7;37.0
79187;SHT31;68762;51.980;5.646;2023-04-25T15:37:44;15.6;36.8
79187;SHT31;68762;51.980;5.646;2023-04-25T15:40:15;15.6;38.0
79187;SHT31;68762;51.980;5.646;2023-04-25T15:42:46;15.5;37.3
79187;SHT31;68762;51.980;5.646;2023-04-25T15:45:17;15.5;36.6
79187;SHT31;68762;51.980;5.646;2023-04-25T15:47:47;15.4;35.6
79187;SHT31;68762;51.980;5.646;2023-04-25T15:50:16;15.3;35.7
79187;SHT31;68762;51.980;5.646;2023-04-25T15:52:47;15.2;36.0
79187;SHT31;68762;51.980;5.646;2023-04-25T15:55:17;15.1;35.7
79187;SHT31;68762;51.980;5.646;2023-04-25T15:57:48;15.0;37.2
79187;SHT31;68762;51.980;5.646;2023-04-25T16:00:20;14.9;37.0
79187;SHT31;68762;51.980;5.646;2023-04-25T16:02:50;14.9;37.0
79187;SHT31;68762;51.980;5.646;2023-04-25T16:05:18;14.8;37.5
79187;SHT31;68762;51.980;5.646;2023-04-25T16:07:50;14.7;37.4
79187;SHT31;68762;51.980;5.646;2023-04-25T16:10:19;14.7;38.5
79187;SHT31;68762;51.980;5.646;2023-04-25T16:12:49;14.6;38.6
79187;SHT31;68762;51.980;5.646;2023-04-25T16:15:18;14.6;37.5
79187;SHT31;68762;51.980;5.646;2023-04-25T16:17:46;14.5;36.5
79187;SHT31;68762;51.980;5.646;2023-04-25T16:20:16;14.5;37.2
79187;SHT31;68762;51.980;5.646;2023-04-25T16:22:44;14.4;37.3